AAL1819 KSEA-KMIA
Flight info
| Callsign | AAL1819 |
|---|---|
| Flight time | 5h 7m |
| Altitude | 35000 |
| Route | MONTN2 SEA NORMY J90 MWH DLN DDY BFF SGF/N0440F370 MEM MGM ACORI FROGZ5 |
| Aircraft | B738/M-SDE2E3FGHIRWXY/LB1 |
Departure
| Time | 2026-05-04 15:44 |
|---|---|
| Airport | Seattle–Tacoma International Airport (KSEA) |
Arrival
| Time | 2026-05-04 20:51 |
|---|---|
| Airport | Miami International Airport (KMIA) |
| Time | Latitude | Longitude | Altitude | Speed | Heading |
|---|---|---|---|---|---|
| 2026-05-04 14:23 | 47.44650 | -122.30027 | 393 ft | 0 kts | 143° |
| 2026-05-04 15:34 | 47.44690 | -122.30067 | 393 ft | 4 kts | 140° |
| 2026-05-04 15:35 | 47.44701 | -122.30084 | 393 ft | 1 kts | 53° |
| 2026-05-04 15:38 | 47.44702 | -122.30081 | 393 ft | 2 kts | 53° |
| 2026-05-04 15:38 | 47.44729 | -122.30034 | 393 ft | 9 kts | 45° |
| 2026-05-04 15:38 | 47.44792 | -122.29988 | 393 ft | 12 kts | 8° |
| 2026-05-04 15:39 | 47.44877 | -122.30017 | 393 ft | 14 kts | 328° |
| 2026-05-04 15:39 | 47.44944 | -122.30118 | 393 ft | 13 kts | 310° |
| 2026-05-04 15:39 | 47.45009 | -122.30353 | 393 ft | 13 kts | 270° |
| 2026-05-04 15:40 | 47.45010 | -122.30479 | 393 ft | 12 kts | 270° |
| 2026-05-04 15:40 | 47.45031 | -122.30594 | 393 ft | 12 kts | 314° |
| 2026-05-04 15:40 | 47.45122 | -122.30625 | 393 ft | 16 kts | 360° |
| 2026-05-04 15:40 | 47.45245 | -122.30625 | 393 ft | 20 kts | 360° |
| 2026-05-04 15:41 | 47.45395 | -122.30623 | 393 ft | 23 kts | 0° |
| 2026-05-04 15:41 | 47.45554 | -122.30622 | 393 ft | 23 kts | 0° |
| 2026-05-04 15:41 | 47.45710 | -122.30621 | 393 ft | 22 kts | 0° |
| 2026-05-04 15:41 | 47.45860 | -122.30619 | 393 ft | 21 kts | 360° |
| 2026-05-04 15:42 | 47.46006 | -122.30618 | 393 ft | 21 kts | 0° |
| 2026-05-04 15:42 | 47.46148 | -122.30617 | 393 ft | 20 kts | 0° |
| 2026-05-04 15:42 | 47.46284 | -122.30616 | 393 ft | 17 kts | 360° |
| 2026-05-04 15:42 | 47.46370 | -122.30653 | 393 ft | 12 kts | 306° |
| 2026-05-04 15:43 | 47.46373 | -122.30757 | 393 ft | 7 kts | 258° |
| 2026-05-04 15:43 | 47.46336 | -122.30779 | 393 ft | 5 kts | 180° |
| 2026-05-04 15:43 | 47.46301 | -122.30779 | 393 ft | 6 kts | 180° |
| 2026-05-04 15:43 | 47.46169 | -122.30781 | 393 ft | 48 kts | 180° |
| 2026-05-04 15:44 | 47.45605 | -122.30786 | 393 ft | 114 kts | 180° |
| 2026-05-04 15:44 | 47.44607 | -122.30795 | 416 ft | 165 kts | 180° |
| 2026-05-04 15:44 | 47.43419 | -122.30797 | 945 ft | 178 kts | 180° |
| 2026-05-04 15:44 | 47.42142 | -122.30831 | 1636 ft | 187 kts | 184° |
| 2026-05-04 15:45 | 47.40778 | -122.30924 | 2087 ft | 207 kts | 183° |
| 2026-05-04 15:45 | 47.39277 | -122.30956 | 2434 ft | 225 kts | 177° |
| 2026-05-04 15:45 | 47.37671 | -122.30711 | 2837 ft | 241 kts | 172° |
| 2026-05-04 15:45 | 47.35927 | -122.30414 | 3256 ft | 259 kts | 173° |
| 2026-05-04 15:46 | 47.34204 | -122.29575 | 3880 ft | 267 kts | 145° |
| 2026-05-04 15:46 | 47.32957 | -122.27535 | 4550 ft | 273 kts | 113° |
| 2026-05-04 15:46 | 47.32595 | -122.24838 | 5370 ft | 268 kts | 82° |
| 2026-05-04 15:46 | 47.33081 | -122.22221 | 6211 ft | 266 kts | 67° |
| 2026-05-04 15:47 | 47.33729 | -122.19624 | 6823 ft | 274 kts | 70° |
| 2026-05-04 15:47 | 47.34323 | -122.16922 | 7509 ft | 278 kts | 71° |
| 2026-05-04 15:47 | 47.34888 | -122.14182 | 8256 ft | 281 kts | 72° |
| 2026-05-04 15:47 | 47.35445 | -122.11400 | 8978 ft | 284 kts | 72° |
| 2026-05-04 15:48 | 47.36000 | -122.08590 | 9762 ft | 286 kts | 73° |
| 2026-05-04 15:48 | 47.36556 | -122.05748 | 10366 ft | 294 kts | 72° |
| 2026-05-04 15:48 | 47.37763 | -121.99524 | 10797 ft | 334 kts | 73° |
| 2026-05-04 15:49 | 47.38396 | -121.96236 | 11343 ft | 340 kts | 73° |
| 2026-05-04 15:49 | 47.39043 | -121.92857 | 12000 ft | 344 kts | 72° |
| 2026-05-04 15:49 | 47.39696 | -121.89447 | 12654 ft | 347 kts | 72° |
| 2026-05-04 15:49 | 47.40353 | -121.86008 | 13318 ft | 350 kts | 72° |
| 2026-05-04 15:50 | 47.41019 | -121.82524 | 13976 ft | 353 kts | 72° |
| 2026-05-04 15:50 | 47.41685 | -121.79028 | 14586 ft | 355 kts | 72° |
| 2026-05-04 15:50 | 47.42356 | -121.75503 | 15193 ft | 358 kts | 72° |
| 2026-05-04 15:50 | 47.42916 | -121.71905 | 15781 ft | 362 kts | 80° |
| 2026-05-04 15:51 | 47.43035 | -121.68160 | 16354 ft | 367 kts | 88° |
| 2026-05-04 15:51 | 47.42983 | -121.64368 | 16920 ft | 371 kts | 89° |
| 2026-05-04 15:51 | 47.42910 | -121.60541 | 17497 ft | 375 kts | 89° |
| 2026-05-04 15:51 | 47.42833 | -121.56686 | 18131 ft | 377 kts | 89° |
| 2026-05-04 15:52 | 47.42761 | -121.52866 | 18608 ft | 379 kts | 88° |
| 2026-05-04 15:52 | 47.42692 | -121.48946 | 19017 ft | 384 kts | 88° |
| 2026-05-04 15:52 | 47.42627 | -121.44980 | 19461 ft | 387 kts | 88° |
| 2026-05-04 15:52 | 47.42562 | -121.41007 | 19966 ft | 388 kts | 88° |
| 2026-05-04 15:53 | 47.42498 | -121.37001 | 20412 ft | 392 kts | 88° |
| 2026-05-04 15:53 | 47.42433 | -121.32958 | 20905 ft | 395 kts | 87° |
| 2026-05-04 15:53 | 47.42367 | -121.28898 | 21392 ft | 396 kts | 87° |
| 2026-05-04 15:53 | 47.42299 | -121.24819 | 21831 ft | 400 kts | 87° |
| 2026-05-04 15:54 | 47.42229 | -121.20701 | 22325 ft | 402 kts | 87° |
| 2026-05-04 15:54 | 47.42157 | -121.16552 | 22732 ft | 406 kts | 87° |
| 2026-05-04 15:54 | 47.42084 | -121.12374 | 23173 ft | 408 kts | 87° |
| 2026-05-04 15:54 | 47.42007 | -121.08169 | 23595 ft | 411 kts | 87° |
| 2026-05-04 15:55 | 47.41929 | -121.03934 | 23964 ft | 413 kts | 87° |
| 2026-05-04 15:55 | 47.41849 | -120.99683 | 24385 ft | 415 kts | 87° |
| 2026-05-04 15:55 | 47.41766 | -120.95414 | 24767 ft | 417 kts | 87° |
| 2026-05-04 15:55 | 47.41682 | -120.91118 | 25139 ft | 419 kts | 87° |
| 2026-05-04 15:56 | 47.41591 | -120.86805 | 25504 ft | 420 kts | 87° |
| 2026-05-04 15:56 | 47.41503 | -120.82488 | 25865 ft | 422 kts | 87° |
| 2026-05-04 15:56 | 47.41415 | -120.78149 | 26170 ft | 424 kts | 87° |
| 2026-05-04 15:56 | 47.41325 | -120.73782 | 26495 ft | 426 kts | 87° |
| 2026-05-04 15:57 | 47.41231 | -120.69402 | 26843 ft | 428 kts | 87° |
| 2026-05-04 15:57 | 47.41135 | -120.65008 | 27193 ft | 429 kts | 87° |
| 2026-05-04 15:57 | 47.41037 | -120.60647 | 27522 ft | 431 kts | 87° |
| 2026-05-04 15:57 | 47.40937 | -120.56218 | 27835 ft | 433 kts | 87° |
| 2026-05-04 15:58 | 47.40837 | -120.51767 | 28166 ft | 435 kts | 87° |
| 2026-05-04 15:58 | 47.40731 | -120.47298 | 28466 ft | 437 kts | 87° |
| 2026-05-04 15:58 | 47.40605 | -120.42793 | 28696 ft | 442 kts | 90° |
| 2026-05-04 15:58 | 47.40120 | -120.38269 | 28980 ft | 450 kts | 99° |
| 2026-05-04 15:59 | 47.39352 | -120.33791 | 29351 ft | 451 kts | 100° |
| 2026-05-04 15:59 | 47.38542 | -120.29310 | 29660 ft | 452 kts | 101° |
| 2026-05-04 15:59 | 47.37723 | -120.24815 | 29936 ft | 455 kts | 101° |
| 2026-05-04 15:59 | 47.36908 | -120.20299 | 30156 ft | 457 kts | 100° |
| 2026-05-04 16:00 | 47.36097 | -120.15748 | 30402 ft | 457 kts | 100° |
| 2026-05-04 16:00 | 47.35567 | -120.12744 | 30632 ft | 456 kts | 100° |
| 2026-05-04 16:00 | 47.34772 | -120.08226 | 30981 ft | 454 kts | 99° |
| 2026-05-04 16:00 | 47.33982 | -120.03728 | 31327 ft | 452 kts | 99° |
| 2026-05-04 16:01 | 47.33196 | -119.99252 | 31645 ft | 450 kts | 99° |
| 2026-05-04 16:01 | 47.32412 | -119.94795 | 31993 ft | 448 kts | 99° |
| 2026-05-04 16:01 | 47.31631 | -119.90363 | 32340 ft | 446 kts | 99° |
| 2026-05-04 16:01 | 47.30851 | -119.85950 | 32659 ft | 444 kts | 99° |
| 2026-05-04 16:02 | 47.30072 | -119.81557 | 32993 ft | 442 kts | 99° |
| 2026-05-04 16:02 | 47.29293 | -119.77180 | 33292 ft | 440 kts | 98° |
| 2026-05-04 16:02 | 47.27740 | -119.68472 | 33845 ft | 438 kts | 98° |
| 2026-05-04 16:03 | 47.26972 | -119.64179 | 34026 ft | 439 kts | 98° |
| 2026-05-04 16:03 | 47.26192 | -119.59825 | 34178 ft | 440 kts | 98° |
| 2026-05-04 16:03 | 47.25408 | -119.55462 | 34313 ft | 441 kts | 98° |
| 2026-05-04 16:03 | 47.24620 | -119.51095 | 34495 ft | 441 kts | 98° |
| 2026-05-04 16:04 | 47.23832 | -119.46737 | 34702 ft | 441 kts | 98° |
| 2026-05-04 16:04 | 47.22248 | -119.37994 | 34871 ft | 444 kts | 98° |
| 2026-05-04 16:04 | 47.21450 | -119.33613 | 34877 ft | 443 kts | 98° |
| 2026-05-04 16:05 | 47.19563 | -119.24936 | 34885 ft | 447 kts | 103° |
| 2026-05-04 16:06 | 47.16223 | -119.12103 | 34880 ft | 449 kts | 104° |
| 2026-05-04 16:07 | 47.11797 | -118.94934 | 34840 ft | 450 kts | 104° |
| 2026-05-04 16:08 | 47.07395 | -118.77716 | 34833 ft | 450 kts | 104° |
| 2026-05-04 16:09 | 47.01860 | -118.56255 | 34842 ft | 451 kts | 104° |
| 2026-05-04 16:10 | 46.97382 | -118.39040 | 34838 ft | 452 kts | 104° |
| 2026-05-04 16:11 | 46.92894 | -118.21912 | 34834 ft | 452 kts | 104° |
| 2026-05-04 16:12 | 46.86098 | -117.96215 | 34841 ft | 452 kts | 105° |
| 2026-05-04 16:13 | 46.81530 | -117.79101 | 34838 ft | 452 kts | 105° |
| 2026-05-04 16:14 | 46.76937 | -117.62016 | 34849 ft | 452 kts | 105° |
| 2026-05-04 16:16 | 46.71152 | -117.40672 | 34847 ft | 453 kts | 105° |
| 2026-05-04 16:17 | 46.65319 | -117.19342 | 34872 ft | 453 kts | 105° |
| 2026-05-04 16:18 | 46.60637 | -117.02358 | 34901 ft | 454 kts | 105° |
| 2026-05-04 16:19 | 46.54718 | -116.81060 | 34876 ft | 455 kts | 106° |
| 2026-05-04 16:20 | 46.48765 | -116.59821 | 34866 ft | 455 kts | 106° |
| 2026-05-04 16:22 | 46.42739 | -116.38518 | 34887 ft | 457 kts | 107° |
| 2026-05-04 16:23 | 46.35443 | -116.12970 | 34907 ft | 457 kts | 107° |
| 2026-05-04 16:25 | 46.28106 | -115.87543 | 34933 ft | 457 kts | 107° |
| 2026-05-04 16:26 | 46.19457 | -115.57903 | 34932 ft | 456 kts | 108° |
| 2026-05-04 16:28 | 46.13255 | -115.36864 | 34932 ft | 458 kts | 108° |
| 2026-05-04 16:29 | 46.04456 | -115.07321 | 34917 ft | 459 kts | 108° |
| 2026-05-04 16:31 | 45.98127 | -114.86283 | 34930 ft | 458 kts | 108° |
| 2026-05-04 16:32 | 45.90496 | -114.61150 | 34914 ft | 458 kts | 109° |
| 2026-05-04 16:33 | 45.85369 | -114.44401 | 34899 ft | 459 kts | 109° |
| 2026-05-04 16:34 | 45.81500 | -114.31838 | 34895 ft | 459 kts | 109° |
| 2026-05-04 16:35 | 45.73723 | -114.06763 | 34898 ft | 462 kts | 109° |
| 2026-05-04 16:36 | 45.69778 | -113.94140 | 34888 ft | 464 kts | 110° |
| 2026-05-04 16:37 | 45.65809 | -113.81503 | 34906 ft | 464 kts | 110° |
| 2026-05-04 16:38 | 45.60508 | -113.64723 | 34895 ft | 464 kts | 110° |
| 2026-05-04 16:39 | 45.53853 | -113.43804 | 34902 ft | 462 kts | 111° |
| 2026-05-04 16:40 | 45.48538 | -113.27219 | 34900 ft | 461 kts | 111° |
| 2026-05-04 16:41 | 45.41858 | -113.06525 | 34922 ft | 459 kts | 112° |
| 2026-05-04 16:43 | 45.35133 | -112.85853 | 34968 ft | 461 kts | 112° |
| 2026-05-04 16:43 | 45.31085 | -112.73490 | 34989 ft | 463 kts | 112° |
| 2026-05-04 16:45 | 45.22929 | -112.48481 | 34937 ft | 468 kts | 111° |
| 2026-05-04 16:46 | 45.16463 | -112.27223 | 34926 ft | 471 kts | 111° |
| 2026-05-04 16:47 | 45.11652 | -112.11646 | 34941 ft | 471 kts | 111° |
| 2026-05-04 16:48 | 45.06368 | -111.94675 | 34980 ft | 470 kts | 111° |
| 2026-05-04 16:49 | 45.01083 | -111.77807 | 34984 ft | 470 kts | 112° |
| 2026-05-04 16:50 | 44.95751 | -111.60899 | 34931 ft | 470 kts | 112° |
| 2026-05-04 16:51 | 44.91761 | -111.48315 | 34940 ft | 470 kts | 112° |
| 2026-05-04 16:52 | 44.86393 | -111.31485 | 34987 ft | 470 kts | 112° |
| 2026-05-04 16:53 | 44.82363 | -111.18921 | 34990 ft | 471 kts | 112° |
| 2026-05-04 16:54 | 44.76924 | -111.02058 | 34998 ft | 473 kts | 112° |
| 2026-05-04 16:55 | 44.68707 | -110.76788 | 34980 ft | 475 kts | 113° |
| 2026-05-04 16:56 | 44.61783 | -110.55680 | 34959 ft | 475 kts | 113° |
| 2026-05-04 16:57 | 44.57623 | -110.43082 | 34963 ft | 474 kts | 113° |
| 2026-05-04 16:58 | 44.52085 | -110.26398 | 34965 ft | 472 kts | 114° |
| 2026-05-04 17:00 | 44.43735 | -110.01441 | 34943 ft | 470 kts | 114° |
| 2026-05-04 17:01 | 44.36758 | -109.80766 | 34951 ft | 471 kts | 115° |
| 2026-05-04 17:02 | 44.31134 | -109.64208 | 34949 ft | 473 kts | 115° |
| 2026-05-04 17:03 | 44.26892 | -109.51793 | 34953 ft | 475 kts | 115° |
| 2026-05-04 17:03 | 44.22602 | -109.39298 | 34975 ft | 478 kts | 115° |
| 2026-05-04 17:04 | 44.16826 | -109.22561 | 34967 ft | 480 kts | 116° |
| 2026-05-04 17:05 | 44.11001 | -109.05784 | 34964 ft | 482 kts | 116° |
| 2026-05-04 17:06 | 44.06602 | -108.93183 | 34969 ft | 483 kts | 116° |
| 2026-05-04 17:07 | 44.02684 | -108.82009 | 34943 ft | 483 kts | 116° |
| 2026-05-04 17:07 | 43.99256 | -108.72270 | 34944 ft | 482 kts | 116° |
| 2026-05-04 17:08 | 43.94823 | -108.59727 | 34956 ft | 482 kts | 116° |
| 2026-05-04 17:09 | 43.91866 | -108.51393 | 34967 ft | 481 kts | 116° |
| 2026-05-04 17:09 | 43.88911 | -108.43088 | 34979 ft | 480 kts | 116° |
| 2026-05-04 17:10 | 43.81518 | -108.22424 | 34977 ft | 477 kts | 117° |
| 2026-05-04 17:11 | 43.78558 | -108.14192 | 34970 ft | 477 kts | 117° |
| 2026-05-04 17:12 | 43.74131 | -108.01928 | 34930 ft | 476 kts | 117° |
| 2026-05-04 17:13 | 43.66728 | -107.81540 | 34914 ft | 473 kts | 117° |
| 2026-05-04 17:14 | 43.60803 | -107.65328 | 34902 ft | 472 kts | 117° |
| 2026-05-04 17:15 | 43.56356 | -107.53222 | 34903 ft | 470 kts | 117° |
| 2026-05-04 17:16 | 43.50459 | -107.37252 | 34923 ft | 469 kts | 118° |
| 2026-05-04 17:17 | 43.44511 | -107.21234 | 34916 ft | 469 kts | 118° |
| 2026-05-04 17:18 | 43.38544 | -107.05255 | 34932 ft | 470 kts | 118° |
| 2026-05-04 17:19 | 43.32495 | -106.89152 | 34955 ft | 479 kts | 118° |
| 2026-05-04 17:20 | 43.26346 | -106.72872 | 34939 ft | 480 kts | 118° |
| 2026-05-04 17:20 | 43.21722 | -106.60693 | 34944 ft | 479 kts | 118° |
| 2026-05-04 17:21 | 43.15585 | -106.44608 | 34951 ft | 476 kts | 118° |
| 2026-05-04 17:22 | 43.12521 | -106.36609 | 34963 ft | 474 kts | 118° |
| 2026-05-04 17:23 | 43.06304 | -106.20715 | 34942 ft | 472 kts | 120° |
| 2026-05-04 17:24 | 43.01459 | -106.09011 | 34934 ft | 471 kts | 121° |
| 2026-05-04 17:25 | 42.95032 | -105.93459 | 34919 ft | 472 kts | 121° |
| 2026-05-04 17:26 | 42.88561 | -105.77826 | 34929 ft | 474 kts | 121° |
| 2026-05-04 17:27 | 42.80408 | -105.58256 | 34979 ft | 476 kts | 121° |
| 2026-05-04 17:28 | 42.73828 | -105.42557 | 34987 ft | 478 kts | 121° |
| 2026-05-04 17:29 | 42.63921 | -105.19077 | 34942 ft | 478 kts | 121° |
| 2026-05-04 17:31 | 42.55613 | -104.99531 | 34881 ft | 477 kts | 122° |
| 2026-05-04 17:32 | 42.47843 | -104.81368 | 34899 ft | 477 kts | 122° |
| 2026-05-04 17:33 | 42.40617 | -104.64578 | 34905 ft | 476 kts | 122° |
| 2026-05-04 17:34 | 42.34491 | -104.50417 | 34910 ft | 476 kts | 122° |
| 2026-05-04 17:35 | 42.26098 | -104.31124 | 34851 ft | 476 kts | 123° |
| 2026-05-04 17:36 | 42.22727 | -104.23412 | 34823 ft | 477 kts | 123° |
| 2026-05-04 17:36 | 42.19343 | -104.15691 | 34818 ft | 479 kts | 123° |
| 2026-05-04 17:37 | 42.15945 | -104.07955 | 34894 ft | 480 kts | 123° |
| 2026-05-04 17:37 | 42.14237 | -104.04075 | 34781 ft | 481 kts | 123° |
| 2026-05-04 17:37 | 42.12552 | -104.00251 | 34810 ft | 481 kts | 123° |
| 2026-05-04 17:38 | 42.09121 | -103.92482 | 34827 ft | 483 kts | 123° |
| 2026-05-04 17:38 | 42.05676 | -103.84702 | 34861 ft | 485 kts | 123° |
| 2026-05-04 17:39 | 42.00477 | -103.72997 | 34866 ft | 487 kts | 123° |
| 2026-05-04 17:39 | 41.96995 | -103.65182 | 34887 ft | 487 kts | 123° |
| 2026-05-04 17:40 | 41.93506 | -103.57370 | 34872 ft | 488 kts | 123° |
| 2026-05-04 17:40 | 41.90013 | -103.49568 | 34881 ft | 487 kts | 123° |
| 2026-05-04 17:41 | 41.86767 | -103.41578 | 34865 ft | 488 kts | 119° |
| 2026-05-04 17:41 | 41.83740 | -103.33437 | 34847 ft | 487 kts | 118° |
| 2026-05-04 17:42 | 41.80726 | -103.25324 | 34820 ft | 485 kts | 119° |
| 2026-05-04 17:42 | 41.77684 | -103.17254 | 34810 ft | 485 kts | 119° |
| 2026-05-04 17:43 | 41.74621 | -103.09209 | 34789 ft | 484 kts | 119° |
| 2026-05-04 17:43 | 41.71567 | -103.01222 | 34785 ft | 485 kts | 119° |
| 2026-05-04 17:44 | 41.68483 | -102.93178 | 34774 ft | 485 kts | 119° |
| 2026-05-04 17:44 | 41.65397 | -102.85145 | 34766 ft | 485 kts | 119° |
| 2026-05-04 17:45 | 41.62301 | -102.77109 | 34760 ft | 486 kts | 120° |
| 2026-05-04 17:45 | 41.59196 | -102.69072 | 34752 ft | 487 kts | 120° |
| 2026-05-04 17:46 | 41.56094 | -102.61066 | 34765 ft | 488 kts | 120° |
| 2026-05-04 17:46 | 41.52964 | -102.53006 | 34758 ft | 489 kts | 120° |
| 2026-05-04 17:47 | 41.49822 | -102.44941 | 34750 ft | 489 kts | 120° |
| 2026-05-04 17:47 | 41.46679 | -102.36893 | 34763 ft | 490 kts | 120° |
| 2026-05-04 17:48 | 41.43525 | -102.28840 | 34754 ft | 490 kts | 120° |
| 2026-05-04 17:48 | 41.40384 | -102.20842 | 34755 ft | 490 kts | 120° |
| 2026-05-04 17:49 | 41.37218 | -102.12804 | 34747 ft | 489 kts | 120° |
| 2026-05-04 17:49 | 41.34057 | -102.04800 | 34753 ft | 488 kts | 120° |
| 2026-05-04 17:50 | 41.30893 | -101.96810 | 34776 ft | 488 kts | 120° |
| 2026-05-04 17:50 | 41.27727 | -101.88836 | 34792 ft | 487 kts | 120° |
| 2026-05-04 17:51 | 41.24554 | -101.80865 | 34812 ft | 487 kts | 120° |
| 2026-05-04 17:51 | 41.21382 | -101.72919 | 34820 ft | 486 kts | 121° |
| 2026-05-04 17:52 | 41.18225 | -101.65033 | 34814 ft | 487 kts | 121° |
| 2026-05-04 17:52 | 41.15040 | -101.57098 | 34802 ft | 487 kts | 121° |
| 2026-05-04 17:53 | 41.11847 | -101.49163 | 34784 ft | 488 kts | 121° |
| 2026-05-04 17:53 | 41.08645 | -101.41229 | 34762 ft | 488 kts | 121° |
| 2026-05-04 17:54 | 41.05431 | -101.33286 | 34738 ft | 489 kts | 121° |
| 2026-05-04 17:54 | 41.02204 | -101.25331 | 34726 ft | 490 kts | 121° |
| 2026-05-04 17:55 | 40.98991 | -101.17431 | 34719 ft | 491 kts | 121° |
| 2026-05-04 17:55 | 40.95742 | -101.09464 | 34724 ft | 492 kts | 121° |
| 2026-05-04 17:56 | 40.92477 | -101.01481 | 34730 ft | 493 kts | 121° |
| 2026-05-04 17:56 | 40.89200 | -100.93489 | 34729 ft | 494 kts | 121° |
| 2026-05-04 17:57 | 40.85939 | -100.85557 | 34735 ft | 494 kts | 121° |
| 2026-05-04 17:57 | 40.82647 | -100.77571 | 34694 ft | 495 kts | 121° |
| 2026-05-04 17:58 | 40.79351 | -100.69595 | 34715 ft | 496 kts | 121° |
| 2026-05-04 17:58 | 40.76037 | -100.61601 | 34716 ft | 497 kts | 122° |
| 2026-05-04 17:59 | 40.72709 | -100.53591 | 34722 ft | 499 kts | 121° |
| 2026-05-04 18:00 | 40.67688 | -100.41548 | 34700 ft | 500 kts | 121° |
| 2026-05-04 18:00 | 40.64328 | -100.33514 | 34692 ft | 500 kts | 122° |
| 2026-05-04 18:01 | 40.60985 | -100.25542 | 34703 ft | 500 kts | 122° |
| 2026-05-04 18:01 | 40.57613 | -100.17524 | 34730 ft | 501 kts | 122° |
| 2026-05-04 18:02 | 40.52536 | -100.05491 | 34717 ft | 501 kts | 122° |
| 2026-05-04 18:02 | 40.49142 | -99.97474 | 34714 ft | 501 kts | 122° |
| 2026-05-04 18:03 | 40.45749 | -99.89480 | 34705 ft | 501 kts | 122° |
| 2026-05-04 18:03 | 40.42364 | -99.81527 | 34722 ft | 502 kts | 122° |
| 2026-05-04 18:04 | 40.38945 | -99.73514 | 34705 ft | 504 kts | 122° |
| 2026-05-04 18:05 | 40.33792 | -99.61477 | 34696 ft | 505 kts | 122° |
| 2026-05-04 18:05 | 40.30347 | -99.53453 | 34693 ft | 505 kts | 122° |
| 2026-05-04 18:06 | 40.25162 | -99.41419 | 34702 ft | 505 kts | 122° |
| 2026-05-04 18:06 | 40.21705 | -99.33422 | 34715 ft | 504 kts | 122° |
| 2026-05-04 18:07 | 40.18250 | -99.25452 | 34706 ft | 503 kts | 122° |
| 2026-05-04 18:07 | 40.14802 | -99.17517 | 34691 ft | 501 kts | 122° |
| 2026-05-04 18:08 | 40.11374 | -99.09648 | 34664 ft | 499 kts | 123° |
| 2026-05-04 18:08 | 40.07936 | -99.01778 | 34680 ft | 498 kts | 123° |
| 2026-05-04 18:09 | 40.01055 | -98.86088 | 34681 ft | 498 kts | 123° |
| 2026-05-04 18:10 | 39.97617 | -98.78277 | 34684 ft | 499 kts | 123° |
| 2026-05-04 18:10 | 39.94147 | -98.70414 | 34703 ft | 500 kts | 123° |
| 2026-05-04 18:11 | 39.90663 | -98.62540 | 34671 ft | 501 kts | 123° |
| 2026-05-04 18:11 | 39.87170 | -98.54665 | 34680 ft | 503 kts | 123° |
| 2026-05-04 18:12 | 39.83651 | -98.46752 | 34693 ft | 506 kts | 123° |
| 2026-05-04 18:12 | 39.80137 | -98.38867 | 34685 ft | 508 kts | 123° |
| 2026-05-04 18:13 | 39.76584 | -98.30918 | 34699 ft | 507 kts | 123° |
| 2026-05-04 18:14 | 39.71302 | -98.19131 | 34682 ft | 503 kts | 123° |
| 2026-05-04 18:14 | 39.67742 | -98.11222 | 34696 ft | 510 kts | 123° |
| 2026-05-04 18:15 | 39.60552 | -97.95299 | 34709 ft | 513 kts | 123° |
| 2026-05-04 18:16 | 39.56981 | -97.87412 | 34698 ft | 502 kts | 123° |
| 2026-05-04 18:16 | 39.53433 | -97.79603 | 34705 ft | 503 kts | 123° |
| 2026-05-04 18:17 | 39.48055 | -97.67813 | 34733 ft | 513 kts | 123° |
| 2026-05-04 18:18 | 39.42582 | -97.55850 | 34725 ft | 513 kts | 123° |
| 2026-05-04 18:18 | 39.38983 | -97.47999 | 34657 ft | 503 kts | 123° |
| 2026-05-04 18:19 | 39.33609 | -97.36328 | 34641 ft | 505 kts | 123° |
| 2026-05-04 18:19 | 39.29977 | -97.28471 | 34673 ft | 514 kts | 123° |
| 2026-05-04 18:20 | 39.26312 | -97.20557 | 34673 ft | 517 kts | 123° |
| 2026-05-04 18:20 | 39.22609 | -97.12575 | 34673 ft | 519 kts | 123° |
| 2026-05-04 18:21 | 39.18886 | -97.04571 | 34680 ft | 519 kts | 123° |
| 2026-05-04 18:21 | 39.15796 | -96.97944 | 34687 ft | 519 kts | 123° |
| 2026-05-04 18:22 | 39.12071 | -96.89976 | 34685 ft | 518 kts | 123° |
| 2026-05-04 18:22 | 39.08350 | -96.82036 | 34715 ft | 517 kts | 123° |
| 2026-05-04 18:23 | 39.04632 | -96.74121 | 34695 ft | 517 kts | 123° |
| 2026-05-04 18:23 | 39.00908 | -96.66215 | 34704 ft | 516 kts | 123° |
| 2026-05-04 18:24 | 38.97206 | -96.58376 | 34692 ft | 516 kts | 123° |
| 2026-05-04 18:24 | 38.93480 | -96.50503 | 34665 ft | 516 kts | 124° |
| 2026-05-04 18:25 | 38.89750 | -96.42641 | 34704 ft | 515 kts | 123° |
| 2026-05-04 18:25 | 38.86004 | -96.34766 | 34695 ft | 516 kts | 123° |
| 2026-05-04 18:26 | 38.82258 | -96.26910 | 34692 ft | 516 kts | 123° |
| 2026-05-04 18:26 | 38.78505 | -96.19060 | 34689 ft | 517 kts | 123° |
| 2026-05-04 18:27 | 38.74741 | -96.11204 | 34698 ft | 517 kts | 123° |
| 2026-05-04 18:27 | 38.70995 | -96.03408 | 34684 ft | 517 kts | 123° |
| 2026-05-04 18:28 | 38.67222 | -95.95571 | 34692 ft | 517 kts | 123° |
| 2026-05-04 18:28 | 38.63437 | -95.87729 | 34700 ft | 517 kts | 123° |
| 2026-05-04 18:29 | 38.59650 | -95.79902 | 34713 ft | 518 kts | 123° |
| 2026-05-04 18:29 | 38.55851 | -95.72070 | 34722 ft | 518 kts | 124° |
| 2026-05-04 18:30 | 38.50176 | -95.60406 | 34684 ft | 517 kts | 123° |
| 2026-05-04 18:31 | 38.46375 | -95.52615 | 34710 ft | 516 kts | 123° |
| 2026-05-04 18:31 | 38.42568 | -95.44833 | 34716 ft | 516 kts | 124° |
| 2026-05-04 18:32 | 38.38765 | -95.37078 | 34712 ft | 516 kts | 124° |
| 2026-05-04 18:32 | 38.34962 | -95.29341 | 34739 ft | 515 kts | 123° |
| 2026-05-04 18:33 | 38.31150 | -95.21603 | 34720 ft | 515 kts | 124° |
| 2026-05-04 18:33 | 38.27364 | -95.13936 | 34711 ft | 514 kts | 124° |
| 2026-05-04 18:34 | 38.23557 | -95.06246 | 34718 ft | 512 kts | 124° |
| 2026-05-04 18:34 | 38.19759 | -94.98592 | 34718 ft | 511 kts | 124° |
| 2026-05-04 18:35 | 38.15965 | -94.90963 | 34741 ft | 510 kts | 124° |
| 2026-05-04 18:35 | 38.12172 | -94.83356 | 34719 ft | 508 kts | 124° |
| 2026-05-04 18:36 | 38.08394 | -94.75794 | 34695 ft | 507 kts | 124° |
| 2026-05-04 18:36 | 38.04642 | -94.68304 | 34723 ft | 506 kts | 124° |
| 2026-05-04 18:37 | 38.00859 | -94.60768 | 34736 ft | 507 kts | 124° |
| 2026-05-04 18:37 | 37.97058 | -94.53213 | 34753 ft | 509 kts | 124° |
| 2026-05-04 18:38 | 37.93241 | -94.45646 | 34742 ft | 510 kts | 124° |
| 2026-05-04 18:38 | 37.89410 | -94.38066 | 34739 ft | 511 kts | 124° |
| 2026-05-04 18:39 | 37.85571 | -94.30489 | 34721 ft | 511 kts | 124° |
| 2026-05-04 18:39 | 37.81727 | -94.22918 | 34748 ft | 512 kts | 124° |
| 2026-05-04 18:40 | 37.77869 | -94.15338 | 34769 ft | 512 kts | 124° |
| 2026-05-04 18:40 | 37.74007 | -94.07769 | 34754 ft | 512 kts | 124° |
| 2026-05-04 18:41 | 37.70145 | -94.00215 | 34740 ft | 511 kts | 124° |
| 2026-05-04 18:41 | 37.66290 | -93.92692 | 34740 ft | 509 kts | 124° |
| 2026-05-04 18:42 | 37.62443 | -93.85204 | 34746 ft | 507 kts | 124° |
| 2026-05-04 18:42 | 37.58600 | -93.77737 | 34768 ft | 506 kts | 124° |
| 2026-05-04 18:43 | 37.54783 | -93.70341 | 34754 ft | 506 kts | 124° |
| 2026-05-04 18:43 | 37.50938 | -93.62905 | 34759 ft | 506 kts | 124° |
| 2026-05-04 18:44 | 37.47090 | -93.55480 | 34767 ft | 505 kts | 124° |
| 2026-05-04 18:44 | 37.43245 | -93.48077 | 34762 ft | 506 kts | 124° |
| 2026-05-04 18:45 | 37.39374 | -93.40637 | 34763 ft | 511 kts | 124° |
| 2026-05-04 18:45 | 37.35429 | -93.33114 | 34812 ft | 519 kts | 127° |
| 2026-05-04 18:46 | 37.30906 | -93.25972 | 34944 ft | 526 kts | 133° |
| 2026-05-04 18:46 | 37.28544 | -93.22516 | 35088 ft | 528 kts | 133° |
| 2026-05-04 18:46 | 37.26144 | -93.19032 | 35325 ft | 528 kts | 133° |
| 2026-05-04 18:46 | 37.23743 | -93.15531 | 35531 ft | 528 kts | 133° |
| 2026-05-04 18:47 | 37.21356 | -93.12022 | 35691 ft | 530 kts | 133° |
| 2026-05-04 18:47 | 37.18972 | -93.08489 | 35827 ft | 531 kts | 133° |
| 2026-05-04 18:47 | 37.16589 | -93.04939 | 35945 ft | 534 kts | 132° |
| 2026-05-04 18:47 | 37.14216 | -93.01396 | 36397 ft | 527 kts | 132° |
| 2026-05-04 18:48 | 37.11872 | -92.97891 | 36708 ft | 524 kts | 132° |
| 2026-05-04 18:48 | 37.07157 | -92.90863 | 36799 ft | 530 kts | 133° |
| 2026-05-04 18:49 | 37.02373 | -92.83759 | 36809 ft | 534 kts | 133° |
| 2026-05-04 18:49 | 36.97566 | -92.76636 | 36814 ft | 536 kts | 133° |
| 2026-05-04 18:50 | 36.92777 | -92.69555 | 36797 ft | 536 kts | 133° |
| 2026-05-04 18:50 | 36.87952 | -92.62437 | 36818 ft | 537 kts | 133° |
| 2026-05-04 18:51 | 36.83130 | -92.55336 | 36814 ft | 534 kts | 133° |
| 2026-05-04 18:51 | 36.78358 | -92.48320 | 36808 ft | 526 kts | 133° |
| 2026-05-04 18:52 | 36.73615 | -92.41367 | 36835 ft | 526 kts | 133° |
| 2026-05-04 18:52 | 36.68861 | -92.34417 | 36833 ft | 528 kts | 133° |
| 2026-05-04 18:53 | 36.64062 | -92.27415 | 36877 ft | 534 kts | 133° |
| 2026-05-04 18:53 | 36.59228 | -92.20372 | 36848 ft | 534 kts | 133° |
| 2026-05-04 18:54 | 36.54437 | -92.13403 | 36850 ft | 532 kts | 133° |
| 2026-05-04 18:54 | 36.49636 | -92.06437 | 36852 ft | 529 kts | 133° |
| 2026-05-04 18:55 | 36.44845 | -91.99501 | 36844 ft | 527 kts | 133° |
| 2026-05-04 18:55 | 36.37699 | -91.89183 | 36888 ft | 526 kts | 133° |
| 2026-05-04 18:56 | 36.32916 | -91.82296 | 36881 ft | 527 kts | 133° |
| 2026-05-04 18:56 | 36.28116 | -91.75396 | 36879 ft | 528 kts | 133° |
| 2026-05-04 18:57 | 36.23309 | -91.68501 | 36839 ft | 528 kts | 133° |
| 2026-05-04 18:57 | 36.18505 | -91.61623 | 36883 ft | 528 kts | 133° |
| 2026-05-04 18:58 | 36.13708 | -91.54772 | 36882 ft | 530 kts | 133° |
| 2026-05-04 18:58 | 36.08860 | -91.47861 | 36892 ft | 533 kts | 133° |
| 2026-05-04 18:59 | 36.03996 | -91.40941 | 36897 ft | 533 kts | 133° |
| 2026-05-04 18:59 | 35.99129 | -91.34030 | 36889 ft | 532 kts | 133° |
| 2026-05-04 19:00 | 35.94266 | -91.27139 | 36903 ft | 531 kts | 133° |
| 2026-05-04 19:00 | 35.89450 | -91.20329 | 36909 ft | 529 kts | 133° |
| 2026-05-04 19:01 | 35.84619 | -91.13511 | 36953 ft | 527 kts | 133° |
| 2026-05-04 19:01 | 35.79793 | -91.06715 | 36927 ft | 524 kts | 133° |
| 2026-05-04 19:02 | 35.75001 | -90.99979 | 36918 ft | 521 kts | 133° |
| 2026-05-04 19:02 | 35.70239 | -90.93299 | 36933 ft | 518 kts | 133° |
| 2026-05-04 19:03 | 35.65476 | -90.86633 | 36947 ft | 521 kts | 133° |
| 2026-05-04 19:03 | 35.60645 | -90.79886 | 36943 ft | 528 kts | 133° |
| 2026-05-04 19:04 | 35.55815 | -90.73149 | 36952 ft | 526 kts | 133° |
| 2026-05-04 19:04 | 35.51036 | -90.66494 | 36922 ft | 514 kts | 133° |
| 2026-05-04 19:05 | 35.46295 | -90.59908 | 36934 ft | 517 kts | 133° |
| 2026-05-04 19:05 | 35.41494 | -90.53257 | 36958 ft | 524 kts | 133° |
| 2026-05-04 19:06 | 35.36626 | -90.46523 | 36937 ft | 529 kts | 133° |
| 2026-05-04 19:06 | 35.31738 | -90.39771 | 36938 ft | 531 kts | 133° |
| 2026-05-04 19:07 | 35.26865 | -90.33053 | 36931 ft | 519 kts | 133° |
| 2026-05-04 19:07 | 35.22158 | -90.26574 | 36918 ft | 511 kts | 134° |
| 2026-05-04 19:08 | 35.17397 | -90.20044 | 36953 ft | 518 kts | 134° |
| 2026-05-04 19:08 | 35.13378 | -90.14536 | 36966 ft | 524 kts | 134° |
| 2026-05-04 19:09 | 35.08515 | -90.07881 | 36963 ft | 527 kts | 134° |
| 2026-05-04 19:09 | 35.03618 | -90.01190 | 36962 ft | 529 kts | 134° |
| 2026-05-04 19:10 | 34.99570 | -89.95659 | 36965 ft | 520 kts | 133° |
| 2026-05-04 19:10 | 34.94026 | -89.88012 | 36976 ft | 513 kts | 133° |
| 2026-05-04 19:11 | 34.89283 | -89.81470 | 36981 ft | 516 kts | 133° |
| 2026-05-04 19:11 | 34.84540 | -89.74946 | 36980 ft | 519 kts | 133° |
| 2026-05-04 19:12 | 34.77322 | -89.65049 | 36983 ft | 522 kts | 133° |
| 2026-05-04 19:13 | 34.72488 | -89.58437 | 36939 ft | 524 kts | 134° |
| 2026-05-04 19:13 | 34.67638 | -89.51815 | 36984 ft | 525 kts | 134° |
| 2026-05-04 19:14 | 34.62766 | -89.45177 | 36994 ft | 527 kts | 134° |
| 2026-05-04 19:14 | 34.57907 | -89.38567 | 37001 ft | 528 kts | 134° |
| 2026-05-04 19:15 | 34.53001 | -89.31908 | 36995 ft | 529 kts | 134° |
| 2026-05-04 19:15 | 34.48083 | -89.25244 | 37000 ft | 530 kts | 134° |
| 2026-05-04 19:16 | 34.43165 | -89.18593 | 37006 ft | 530 kts | 134° |
| 2026-05-04 19:16 | 34.38244 | -89.11950 | 36999 ft | 528 kts | 134° |
| 2026-05-04 19:17 | 34.33339 | -89.05341 | 37002 ft | 527 kts | 134° |
| 2026-05-04 19:17 | 34.28450 | -88.98769 | 37011 ft | 525 kts | 134° |
| 2026-05-04 19:18 | 34.23568 | -88.92216 | 37009 ft | 523 kts | 134° |
| 2026-05-04 19:18 | 34.18697 | -88.85692 | 36983 ft | 522 kts | 134° |
| 2026-05-04 19:19 | 34.13841 | -88.79198 | 37016 ft | 521 kts | 134° |
| 2026-05-04 19:19 | 34.08988 | -88.72721 | 37014 ft | 520 kts | 134° |
| 2026-05-04 19:20 | 34.04130 | -88.66250 | 37019 ft | 520 kts | 134° |
| 2026-05-04 19:20 | 33.99272 | -88.59791 | 37006 ft | 520 kts | 134° |
| 2026-05-04 19:21 | 33.94406 | -88.53332 | 36961 ft | 520 kts | 134° |
| 2026-05-04 19:21 | 33.89565 | -88.46918 | 37020 ft | 521 kts | 135° |
| 2026-05-04 19:22 | 33.84672 | -88.40448 | 37005 ft | 523 kts | 135° |
| 2026-05-04 19:22 | 33.79763 | -88.33969 | 37005 ft | 524 kts | 135° |
| 2026-05-04 19:23 | 33.74847 | -88.27491 | 37005 ft | 525 kts | 135° |
| 2026-05-04 19:23 | 33.69920 | -88.21012 | 36995 ft | 525 kts | 135° |
| 2026-05-04 19:24 | 33.65017 | -88.14575 | 36964 ft | 525 kts | 135° |
| 2026-05-04 19:24 | 33.60093 | -88.08122 | 37019 ft | 524 kts | 135° |
| 2026-05-04 19:25 | 33.55166 | -88.01678 | 37005 ft | 524 kts | 135° |
| 2026-05-04 19:25 | 33.50239 | -87.95245 | 37004 ft | 523 kts | 135° |
| 2026-05-04 19:26 | 33.45315 | -87.88828 | 37017 ft | 522 kts | 135° |
| 2026-05-04 19:26 | 33.40395 | -87.82427 | 37030 ft | 522 kts | 135° |
| 2026-05-04 19:27 | 33.35476 | -87.76040 | 37046 ft | 521 kts | 135° |
| 2026-05-04 19:27 | 33.30564 | -87.69672 | 37090 ft | 520 kts | 135° |
| 2026-05-04 19:28 | 33.25663 | -87.63331 | 37066 ft | 519 kts | 135° |
| 2026-05-04 19:28 | 33.20770 | -87.57012 | 37059 ft | 517 kts | 135° |
| 2026-05-04 19:29 | 33.15929 | -87.50769 | 37057 ft | 515 kts | 135° |
| 2026-05-04 19:29 | 33.11070 | -87.44514 | 37011 ft | 513 kts | 136° |
| 2026-05-04 19:30 | 33.06213 | -87.38275 | 37058 ft | 515 kts | 136° |
| 2026-05-04 19:30 | 33.01289 | -87.31964 | 37094 ft | 522 kts | 136° |
| 2026-05-04 19:31 | 32.96342 | -87.25630 | 37066 ft | 521 kts | 136° |
| 2026-05-04 19:31 | 32.91401 | -87.19311 | 37046 ft | 520 kts | 136° |
| 2026-05-04 19:32 | 32.86476 | -87.13026 | 37037 ft | 517 kts | 136° |
| 2026-05-04 19:32 | 32.81608 | -87.06826 | 37029 ft | 515 kts | 136° |
| 2026-05-04 19:33 | 32.76721 | -87.00612 | 37024 ft | 514 kts | 136° |
| 2026-05-04 19:33 | 32.71837 | -86.94414 | 37041 ft | 514 kts | 136° |
| 2026-05-04 19:34 | 32.66946 | -86.88217 | 37010 ft | 514 kts | 136° |
| 2026-05-04 19:34 | 32.62053 | -86.82028 | 37000 ft | 514 kts | 136° |
| 2026-05-04 19:35 | 32.57162 | -86.75853 | 36948 ft | 514 kts | 136° |
| 2026-05-04 19:35 | 32.52265 | -86.69679 | 37014 ft | 513 kts | 137° |
| 2026-05-04 19:36 | 32.47397 | -86.63553 | 37061 ft | 514 kts | 137° |
| 2026-05-04 19:36 | 32.42477 | -86.57373 | 37051 ft | 516 kts | 137° |
| 2026-05-04 19:37 | 32.37543 | -86.51184 | 37051 ft | 517 kts | 137° |
| 2026-05-04 19:37 | 32.32603 | -86.44996 | 37085 ft | 517 kts | 137° |
| 2026-05-04 19:38 | 32.27657 | -86.38812 | 37038 ft | 517 kts | 137° |
| 2026-05-04 19:38 | 32.22718 | -86.32648 | 37075 ft | 516 kts | 137° |
| 2026-05-04 19:39 | 32.17493 | -86.26875 | 37085 ft | 512 kts | 144° |
| 2026-05-04 19:39 | 32.12073 | -86.21423 | 37071 ft | 512 kts | 144° |
| 2026-05-04 19:40 | 32.06656 | -86.15942 | 37091 ft | 513 kts | 144° |
| 2026-05-04 19:40 | 32.01311 | -86.10452 | 37031 ft | 513 kts | 144° |
| 2026-05-04 19:41 | 31.95933 | -86.04908 | 37090 ft | 512 kts | 144° |
| 2026-05-04 19:41 | 31.90565 | -85.99390 | 37093 ft | 512 kts | 144° |
| 2026-05-04 19:42 | 31.85190 | -85.93878 | 37093 ft | 512 kts | 144° |
| 2026-05-04 19:42 | 31.79819 | -85.88378 | 37086 ft | 512 kts | 144° |
| 2026-05-04 19:43 | 31.74568 | -85.82681 | 37078 ft | 516 kts | 137° |
| 2026-05-04 19:43 | 31.69769 | -85.76381 | 37068 ft | 517 kts | 134° |
| 2026-05-04 19:44 | 31.65083 | -85.70024 | 37058 ft | 518 kts | 135° |
| 2026-05-04 19:44 | 31.60299 | -85.63696 | 37057 ft | 518 kts | 136° |
| 2026-05-04 19:45 | 31.55454 | -85.57410 | 37062 ft | 519 kts | 136° |
| 2026-05-04 19:45 | 31.50585 | -85.51133 | 37095 ft | 519 kts | 136° |
| 2026-05-04 19:46 | 31.45755 | -85.44909 | 37110 ft | 520 kts | 136° |
| 2026-05-04 19:46 | 31.40892 | -85.38643 | 37118 ft | 518 kts | 136° |
| 2026-05-04 19:47 | 31.36042 | -85.32404 | 37121 ft | 518 kts | 136° |
| 2026-05-04 19:47 | 31.31197 | -85.26181 | 37086 ft | 517 kts | 136° |
| 2026-05-04 19:48 | 31.26352 | -85.19969 | 37082 ft | 516 kts | 136° |
| 2026-05-04 19:48 | 31.21506 | -85.13765 | 37086 ft | 515 kts | 136° |
| 2026-05-04 19:49 | 31.16670 | -85.07585 | 37080 ft | 515 kts | 136° |
| 2026-05-04 19:49 | 31.11843 | -85.01426 | 37075 ft | 512 kts | 136° |
| 2026-05-04 19:50 | 31.07069 | -84.95343 | 37062 ft | 511 kts | 136° |
| 2026-05-04 19:50 | 31.02270 | -84.89240 | 37073 ft | 510 kts | 136° |
| 2026-05-04 19:51 | 30.97475 | -84.83153 | 37073 ft | 509 kts | 137° |
| 2026-05-04 19:51 | 30.92692 | -84.77089 | 37069 ft | 508 kts | 137° |
| 2026-05-04 19:52 | 30.87914 | -84.71041 | 37061 ft | 507 kts | 137° |
| 2026-05-04 19:52 | 30.83137 | -84.65005 | 37048 ft | 506 kts | 137° |
| 2026-05-04 19:53 | 30.78370 | -84.58991 | 37057 ft | 505 kts | 137° |
| 2026-05-04 19:53 | 30.73601 | -84.52983 | 37069 ft | 505 kts | 137° |
| 2026-05-04 19:54 | 30.69637 | -84.47996 | 37066 ft | 504 kts | 137° |
| 2026-05-04 19:54 | 30.64102 | -84.41044 | 37071 ft | 504 kts | 137° |
| 2026-05-04 19:55 | 30.59330 | -84.35060 | 37074 ft | 504 kts | 137° |
| 2026-05-04 19:55 | 30.55359 | -84.30089 | 37080 ft | 504 kts | 137° |
| 2026-05-04 19:56 | 30.50589 | -84.24123 | 37087 ft | 504 kts | 137° |
| 2026-05-04 19:56 | 30.45813 | -84.18160 | 37078 ft | 505 kts | 137° |
| 2026-05-04 19:57 | 30.41038 | -84.12206 | 37076 ft | 504 kts | 138° |
| 2026-05-04 19:57 | 30.36065 | -84.06543 | 37041 ft | 491 kts | 155° |
| 2026-05-04 19:58 | 30.30181 | -84.02709 | 37065 ft | 485 kts | 158° |
| 2026-05-04 19:58 | 30.24273 | -83.98916 | 37017 ft | 485 kts | 157° |
| 2026-05-04 19:59 | 30.18400 | -83.95058 | 37050 ft | 486 kts | 157° |
| 2026-05-04 19:59 | 30.12566 | -83.91193 | 37069 ft | 486 kts | 157° |
| 2026-05-04 20:00 | 30.06704 | -83.87311 | 37059 ft | 486 kts | 157° |
| 2026-05-04 20:00 | 30.00825 | -83.83429 | 37062 ft | 486 kts | 157° |
| 2026-05-04 20:01 | 29.94950 | -83.79556 | 37040 ft | 485 kts | 157° |
| 2026-05-04 20:01 | 29.89123 | -83.75720 | 37054 ft | 484 kts | 157° |
| 2026-05-04 20:02 | 29.83270 | -83.71871 | 37064 ft | 484 kts | 157° |
| 2026-05-04 20:02 | 29.77425 | -83.68036 | 37059 ft | 483 kts | 157° |
| 2026-05-04 20:03 | 29.71579 | -83.64206 | 37055 ft | 483 kts | 157° |
| 2026-05-04 20:03 | 29.65744 | -83.60386 | 37024 ft | 482 kts | 156° |
| 2026-05-04 20:04 | 29.59921 | -83.56578 | 37043 ft | 481 kts | 156° |
| 2026-05-04 20:04 | 29.54139 | -83.52804 | 37058 ft | 480 kts | 156° |
| 2026-05-04 20:05 | 29.48338 | -83.49022 | 37050 ft | 479 kts | 156° |
| 2026-05-04 20:05 | 29.42543 | -83.45250 | 37044 ft | 478 kts | 156° |
| 2026-05-04 20:06 | 29.36762 | -83.41490 | 37021 ft | 477 kts | 156° |
| 2026-05-04 20:06 | 29.30999 | -83.37745 | 37039 ft | 475 kts | 156° |
| 2026-05-04 20:07 | 29.25239 | -83.34016 | 37038 ft | 474 kts | 158° |
| 2026-05-04 20:07 | 29.19370 | -83.30821 | 37049 ft | 468 kts | 163° |
| 2026-05-04 20:08 | 29.13384 | -83.27921 | 37044 ft | 467 kts | 163° |
| 2026-05-04 20:08 | 29.07402 | -83.24989 | 37006 ft | 468 kts | 163° |
| 2026-05-04 20:09 | 29.01446 | -83.22000 | 37039 ft | 467 kts | 163° |
| 2026-05-04 20:09 | 28.95498 | -83.18991 | 37046 ft | 467 kts | 162° |
| 2026-05-04 20:10 | 28.89549 | -83.15983 | 37043 ft | 467 kts | 162° |
| 2026-05-04 20:10 | 28.83597 | -83.12979 | 37034 ft | 467 kts | 163° |
| 2026-05-04 20:11 | 28.77692 | -83.10005 | 37010 ft | 467 kts | 163° |
| 2026-05-04 20:11 | 28.71752 | -83.07017 | 37032 ft | 466 kts | 163° |
| 2026-05-04 20:12 | 28.65825 | -83.04039 | 37038 ft | 465 kts | 163° |
| 2026-05-04 20:12 | 28.59900 | -83.01066 | 37032 ft | 465 kts | 163° |
| 2026-05-04 20:13 | 28.53965 | -82.98092 | 37039 ft | 465 kts | 163° |
| 2026-05-04 20:13 | 28.48047 | -82.95129 | 37002 ft | 464 kts | 163° |
| 2026-05-04 20:14 | 28.42173 | -82.92192 | 37030 ft | 463 kts | 163° |
| 2026-05-04 20:14 | 28.36265 | -82.89242 | 37039 ft | 463 kts | 163° |
| 2026-05-04 20:15 | 28.30361 | -82.86298 | 37040 ft | 463 kts | 163° |
| 2026-05-04 20:15 | 28.24457 | -82.83357 | 37038 ft | 463 kts | 163° |
| 2026-05-04 20:16 | 28.18549 | -82.80418 | 37044 ft | 464 kts | 163° |
| 2026-05-04 20:16 | 28.12644 | -82.77482 | 37041 ft | 463 kts | 164° |
| 2026-05-04 20:17 | 28.06739 | -82.74551 | 37033 ft | 463 kts | 164° |
| 2026-05-04 20:17 | 28.00858 | -82.71685 | 37029 ft | 459 kts | 169° |
| 2026-05-04 20:17 | 27.97814 | -82.70829 | 37058 ft | 446 kts | 178° |
| 2026-05-04 20:18 | 27.94756 | -82.70249 | 37034 ft | 445 kts | 179° |
| 2026-05-04 20:18 | 27.88629 | -82.69200 | 37034 ft | 445 kts | 179° |
| 2026-05-04 20:19 | 27.82495 | -82.68068 | 37019 ft | 445 kts | 179° |
| 2026-05-04 20:19 | 27.76439 | -82.66884 | 37015 ft | 444 kts | 178° |
| 2026-05-04 20:20 | 27.70344 | -82.65679 | 37027 ft | 444 kts | 178° |
| 2026-05-04 20:20 | 27.64258 | -82.64480 | 37011 ft | 444 kts | 178° |
| 2026-05-04 20:21 | 27.58182 | -82.63286 | 37025 ft | 443 kts | 178° |
| 2026-05-04 20:21 | 27.49088 | -82.61266 | 37031 ft | 447 kts | 174° |
| 2026-05-04 20:22 | 27.43063 | -82.59434 | 37028 ft | 449 kts | 173° |
| 2026-05-04 20:22 | 27.37033 | -82.57587 | 37013 ft | 449 kts | 173° |
| 2026-05-04 20:23 | 27.31000 | -82.55794 | 37019 ft | 449 kts | 174° |
| 2026-05-04 20:23 | 27.24948 | -82.54020 | 36998 ft | 448 kts | 174° |
| 2026-05-04 20:24 | 27.18940 | -82.52264 | 37014 ft | 448 kts | 174° |
| 2026-05-04 20:24 | 27.12897 | -82.50498 | 37021 ft | 449 kts | 174° |
| 2026-05-04 20:25 | 27.06846 | -82.48731 | 37001 ft | 449 kts | 174° |
| 2026-05-04 20:25 | 27.00787 | -82.46962 | 37000 ft | 450 kts | 174° |
| 2026-05-04 20:26 | 26.94719 | -82.45195 | 36705 ft | 455 kts | 174° |
| 2026-05-04 20:26 | 26.91685 | -82.44113 | 36296 ft | 464 kts | 162° |
| 2026-05-04 20:26 | 26.88965 | -82.42065 | 35789 ft | 477 kts | 146° |
| 2026-05-04 20:27 | 26.86460 | -82.39618 | 35197 ft | 478 kts | 145° |
| 2026-05-04 20:27 | 26.83962 | -82.37144 | 34586 ft | 480 kts | 145° |
| 2026-05-04 20:27 | 26.81457 | -82.34672 | 33951 ft | 481 kts | 146° |
| 2026-05-04 20:27 | 26.78928 | -82.32205 | 33234 ft | 483 kts | 146° |
| 2026-05-04 20:28 | 26.76386 | -82.29749 | 32564 ft | 483 kts | 146° |
| 2026-05-04 20:28 | 26.73833 | -82.27298 | 31891 ft | 484 kts | 146° |
| 2026-05-04 20:28 | 26.71307 | -82.24882 | 31323 ft | 483 kts | 146° |
| 2026-05-04 20:28 | 26.68769 | -82.22454 | 30855 ft | 477 kts | 146° |
| 2026-05-04 20:29 | 26.66250 | -82.20047 | 30384 ft | 477 kts | 146° |
| 2026-05-04 20:29 | 26.63708 | -82.17623 | 29823 ft | 481 kts | 146° |
| 2026-05-04 20:29 | 26.61165 | -82.15197 | 29294 ft | 479 kts | 145° |
| 2026-05-04 20:29 | 26.58640 | -82.12785 | 28774 ft | 475 kts | 145° |
| 2026-05-04 20:30 | 26.56139 | -82.10397 | 28281 ft | 471 kts | 145° |
| 2026-05-04 20:30 | 26.53657 | -82.08031 | 27789 ft | 467 kts | 145° |
| 2026-05-04 20:30 | 26.51207 | -82.05662 | 27298 ft | 464 kts | 144° |
| 2026-05-04 20:30 | 26.48805 | -82.03256 | 26814 ft | 461 kts | 143° |
| 2026-05-04 20:31 | 26.46442 | -82.00853 | 26342 ft | 458 kts | 143° |
| 2026-05-04 20:31 | 26.44101 | -81.98468 | 25862 ft | 454 kts | 143° |
| 2026-05-04 20:31 | 26.41799 | -81.96132 | 25410 ft | 451 kts | 143° |
| 2026-05-04 20:31 | 26.39474 | -81.93784 | 24923 ft | 448 kts | 143° |
| 2026-05-04 20:32 | 26.37161 | -81.91456 | 24458 ft | 446 kts | 143° |
| 2026-05-04 20:32 | 26.34861 | -81.89145 | 23962 ft | 444 kts | 143° |
| 2026-05-04 20:32 | 26.32569 | -81.86845 | 23447 ft | 442 kts | 143° |
| 2026-05-04 20:32 | 26.30291 | -81.84559 | 22926 ft | 439 kts | 143° |
| 2026-05-04 20:33 | 26.28033 | -81.82293 | 22436 ft | 435 kts | 143° |
| 2026-05-04 20:33 | 26.25790 | -81.80045 | 21962 ft | 431 kts | 143° |
| 2026-05-04 20:33 | 26.23659 | -81.77694 | 21488 ft | 435 kts | 132° |
| 2026-05-04 20:33 | 26.22177 | -81.74780 | 21033 ft | 439 kts | 118° |
| 2026-05-04 20:34 | 26.20888 | -81.71665 | 20562 ft | 436 kts | 118° |
| 2026-05-04 20:34 | 26.19628 | -81.68653 | 20104 ft | 433 kts | 118° |
| 2026-05-04 20:34 | 26.18345 | -81.65635 | 19662 ft | 429 kts | 119° |
| 2026-05-04 20:34 | 26.17056 | -81.62641 | 19190 ft | 427 kts | 119° |
| 2026-05-04 20:35 | 26.15767 | -81.59672 | 18725 ft | 425 kts | 119° |
| 2026-05-04 20:35 | 26.14482 | -81.56725 | 18261 ft | 423 kts | 119° |
| 2026-05-04 20:35 | 26.13201 | -81.53789 | 17774 ft | 420 kts | 119° |
| 2026-05-04 20:35 | 26.11925 | -81.50867 | 17275 ft | 417 kts | 119° |
| 2026-05-04 20:36 | 26.10661 | -81.47973 | 16813 ft | 414 kts | 119° |
| 2026-05-04 20:36 | 26.09410 | -81.45107 | 16362 ft | 410 kts | 119° |
| 2026-05-04 20:36 | 26.08168 | -81.42265 | 15912 ft | 407 kts | 119° |
| 2026-05-04 20:36 | 26.06944 | -81.39466 | 15462 ft | 398 kts | 119° |
| 2026-05-04 20:37 | 26.05749 | -81.36724 | 15033 ft | 390 kts | 119° |
| 2026-05-04 20:37 | 26.04585 | -81.34051 | 14620 ft | 388 kts | 119° |
| 2026-05-04 20:37 | 26.03410 | -81.31357 | 14174 ft | 387 kts | 119° |
| 2026-05-04 20:37 | 26.02238 | -81.28670 | 13732 ft | 386 kts | 119° |
| 2026-05-04 20:38 | 26.01068 | -81.25989 | 13247 ft | 384 kts | 119° |
| 2026-05-04 20:38 | 25.99911 | -81.23335 | 12797 ft | 377 kts | 119° |
| 2026-05-04 20:38 | 25.98777 | -81.20738 | 12347 ft | 369 kts | 119° |
| 2026-05-04 20:38 | 25.97665 | -81.18192 | 11947 ft | 363 kts | 119° |
| 2026-05-04 20:39 | 25.96565 | -81.15677 | 11558 ft | 360 kts | 119° |
| 2026-05-04 20:39 | 25.95470 | -81.13177 | 11164 ft | 358 kts | 119° |
| 2026-05-04 20:39 | 25.94387 | -81.10702 | 10850 ft | 352 kts | 119° |
| 2026-05-04 20:39 | 25.93335 | -81.08298 | 10574 ft | 339 kts | 118° |
| 2026-05-04 20:40 | 25.92335 | -81.06015 | 10320 ft | 326 kts | 119° |
| 2026-05-04 20:40 | 25.91360 | -81.03791 | 10082 ft | 314 kts | 118° |
| 2026-05-04 20:40 | 25.90475 | -81.01618 | 9849 ft | 304 kts | 116° |
| 2026-05-04 20:40 | 25.89666 | -80.99478 | 9618 ft | 298 kts | 115° |
| 2026-05-04 20:41 | 25.88873 | -80.97361 | 9392 ft | 296 kts | 115° |
| 2026-05-04 20:41 | 25.88076 | -80.95256 | 9183 ft | 295 kts | 115° |
| 2026-05-04 20:41 | 25.87273 | -80.93156 | 8969 ft | 297 kts | 115° |
| 2026-05-04 20:41 | 25.86460 | -80.91036 | 8673 ft | 299 kts | 115° |
| 2026-05-04 20:42 | 25.85921 | -80.89632 | 8512 ft | 297 kts | 115° |
| 2026-05-04 20:42 | 25.85113 | -80.87530 | 8244 ft | 295 kts | 115° |
| 2026-05-04 20:42 | 25.84311 | -80.85443 | 7974 ft | 293 kts | 115° |
| 2026-05-04 20:42 | 25.83514 | -80.83370 | 7681 ft | 291 kts | 115° |
| 2026-05-04 20:43 | 25.82718 | -80.81305 | 7393 ft | 290 kts | 115° |
| 2026-05-04 20:43 | 25.81926 | -80.79248 | 7096 ft | 289 kts | 115° |
| 2026-05-04 20:43 | 25.81136 | -80.77196 | 6814 ft | 288 kts | 115° |
| 2026-05-04 20:43 | 25.80348 | -80.75152 | 6527 ft | 288 kts | 115° |
| 2026-05-04 20:44 | 25.79563 | -80.73114 | 6219 ft | 284 kts | 115° |
| 2026-05-04 20:44 | 25.78803 | -80.71143 | 5915 ft | 279 kts | 114° |
| 2026-05-04 20:44 | 25.78048 | -80.69191 | 5625 ft | 272 kts | 114° |
| 2026-05-04 20:44 | 25.77320 | -80.67274 | 5353 ft | 269 kts | 110° |
| 2026-05-04 20:45 | 25.77090 | -80.65237 | 5084 ft | 266 kts | 85° |
| 2026-05-04 20:45 | 25.77218 | -80.63196 | 4827 ft | 262 kts | 86° |
| 2026-05-04 20:45 | 25.77323 | -80.61200 | 4537 ft | 254 kts | 86° |
| 2026-05-04 20:45 | 25.77417 | -80.59268 | 4270 ft | 247 kts | 86° |
| 2026-05-04 20:46 | 25.77505 | -80.57399 | 4022 ft | 238 kts | 85° |
| 2026-05-04 20:46 | 25.77586 | -80.55597 | 3834 ft | 228 kts | 86° |
| 2026-05-04 20:46 | 25.77661 | -80.53879 | 3649 ft | 218 kts | 86° |
| 2026-05-04 20:46 | 25.77740 | -80.52236 | 3496 ft | 207 kts | 83° |
| 2026-05-04 20:47 | 25.77825 | -80.50700 | 3357 ft | 196 kts | 83° |
| 2026-05-04 20:47 | 25.77892 | -80.49231 | 3118 ft | 190 kts | 83° |
| 2026-05-04 20:47 | 25.77952 | -80.47781 | 2877 ft | 186 kts | 84° |
| 2026-05-04 20:47 | 25.78008 | -80.46362 | 2653 ft | 181 kts | 84° |
| 2026-05-04 20:48 | 25.78062 | -80.44990 | 2420 ft | 175 kts | 83° |
| 2026-05-04 20:48 | 25.78116 | -80.43669 | 2183 ft | 168 kts | 85° |
| 2026-05-04 20:48 | 25.78165 | -80.42410 | 1976 ft | 157 kts | 83° |
| 2026-05-04 20:48 | 25.78212 | -80.41248 | 1827 ft | 146 kts | 83° |
| 2026-05-04 20:49 | 25.78257 | -80.40135 | 1604 ft | 140 kts | 82° |
| 2026-05-04 20:49 | 25.78305 | -80.39062 | 1426 ft | 138 kts | 81° |
| 2026-05-04 20:49 | 25.78348 | -80.37970 | 1239 ft | 144 kts | 82° |
| 2026-05-04 20:49 | 25.78384 | -80.36866 | 1055 ft | 142 kts | 83° |
| 2026-05-04 20:50 | 25.78428 | -80.35771 | 877 ft | 141 kts | 81° |
| 2026-05-04 20:50 | 25.78483 | -80.34694 | 716 ft | 139 kts | 84° |
| 2026-05-04 20:50 | 25.78525 | -80.33624 | 534 ft | 138 kts | 86° |
| 2026-05-04 20:50 | 25.78555 | -80.32571 | 345 ft | 139 kts | 83° |
| 2026-05-04 20:51 | 25.78605 | -80.31507 | 153 ft | 137 kts | 84° |
| 2026-05-04 20:51 | 25.78651 | -80.30474 | 23 ft | 127 kts | 86° |
| 2026-05-04 20:51 | 25.78687 | -80.29622 | 20 ft | 89 kts | 87° |
| 2026-05-04 20:51 | 25.78709 | -80.29103 | 20 ft | 46 kts | 87° |
| 2026-05-04 20:52 | 25.78733 | -80.28808 | 21 ft | 31 kts | 71° |
| 2026-05-04 20:52 | 25.78859 | -80.28640 | 18 ft | 25 kts | 38° |
| 2026-05-04 20:52 | 25.78989 | -80.28532 | 20 ft | 23 kts | 36° |
| 2026-05-04 20:52 | 25.79116 | -80.28435 | 20 ft | 21 kts | 36° |
| 2026-05-04 20:53 | 25.79225 | -80.28427 | 21 ft | 17 kts | 314° |
| 2026-05-04 20:53 | 25.79286 | -80.28536 | 20 ft | 16 kts | 299° |
| 2026-05-04 20:53 | 25.79342 | -80.28648 | 18 ft | 18 kts | 299° |
| 2026-05-04 20:53 | 25.79409 | -80.28777 | 17 ft | 19 kts | 309° |
| 2026-05-04 20:54 | 25.79524 | -80.28803 | 21 ft | 17 kts | 359° |
| 2026-05-04 20:54 | 25.79640 | -80.28808 | 22 ft | 16 kts | 359° |
| 2026-05-04 20:54 | 25.79752 | -80.28814 | 23 ft | 16 kts | 357° |
| 2026-05-04 20:54 | 25.79859 | -80.28819 | 27 ft | 15 kts | 357° |
| 2026-05-04 20:55 | 25.79934 | -80.28765 | 25 ft | 15 kts | 82° |
| 2026-05-04 20:55 | 25.79940 | -80.28655 | 24 ft | 14 kts | 87° |
| 2026-05-04 20:55 | 25.79944 | -80.28537 | 21 ft | 18 kts | 88° |
| 2026-05-04 20:55 | 25.79950 | -80.28393 | 18 ft | 19 kts | 88° |
| 2026-05-04 20:56 | 25.79956 | -80.28251 | 18 ft | 18 kts | 86° |
| 2026-05-04 20:56 | 25.79962 | -80.28115 | 16 ft | 17 kts | 88° |
| 2026-05-04 20:56 | 25.79967 | -80.27985 | 15 ft | 17 kts | 87° |
| 2026-05-04 20:56 | 25.79972 | -80.27859 | 17 ft | 16 kts | 87° |
| 2026-05-04 20:57 | 25.79941 | -80.27759 | 18 ft | 14 kts | 159° |
| 2026-05-04 20:57 | 25.79890 | -80.27691 | 18 ft | 10 kts | 95° |
| 2026-05-04 20:57 | 25.79842 | -80.27661 | 19 ft | 9 kts | 177° |
| 2026-05-04 20:57 | 25.79788 | -80.27658 | 18 ft | 5 kts | 177° |
| 2026-05-04 20:58 | 25.79778 | -80.27658 | 18 ft | 0 kts | 177° |